Grand Lake, CO

10:01 PM MDT on September 01, 2014 (GMT -0600)
Granby Ranch | Change Station
CLOSE
Current Station
Personal Weather Station
Location: Granby, CO
Elevation: 8360 ft
Nearby Weather Stations

Elev 8360 ft 40.05 °N, 105.91 °W | Updated 2 minutes ago

Clear
Clear
47.3 °F
Feels Like 47 °F
N
0.0
Wind Variable Wind from North
Gusts 1.0 mph

Today
High -- | Low -- °F
--% Chance of Precip.
Yesterday
High -- | Low -- °F
Precip. -- in
6:31 AM 7:34 PM
Waxing Crescent, 47% visible
Pressure 30.28 in
Visibility 10.0 miles
Clouds Clear
Windchill 47 °F
Dew Point 32 °F
Humidity 56%
Rainfall 0.00 in
Snow Depth 0 in , 0 in , 0 in
UV 0 out of 12
Pollen 9.90 out of 12
Air Quality Not available.
Flu Activity Not available.
METAR K20V 020356Z AUTO 16003KT 10SM CLR 10/00 A3028 RMK AO2

More Conditions Fewer Conditions

Pressure 30.28 in
Visibility 10.0 miles
Clouds Clear
Windchill 47 °F
Dew Point 32 °F
Humidity 56%
Rainfall 0.00 in
Snow Depth 0 in , 0 in , 0 in
UV 0 out of 12
Pollen 9.90 out of 12
Air Quality Not available.
Flu Activity Not available.
METAR K20V 020356Z AUTO 16003KT 10SM CLR 10/00 A3028 RMK AO2

More Conditions Fewer Conditions

10-Day Weather Forecast

Almanac

Astronomy

Sep. 01, 2014 Rise Set
Actual Time 6:31 AM MDT 7:34 PM MDT
Civil Twilight 6:03 AM MDT 8:02 PM MDT
Nautical Twilight 5:30 AM MDT 8:35 PM MDT
Astronomical Twilight 4:55 AM MDT 9:10 PM MDT
Moon 1:19 PM MDT (9/1) 11:38 PM MDT (9/1)
Length of Visible Light 13h 59m
Length of Day
13h 03m
Tomorrow will be 2m 32s shorter.
Waxing Crescent, 47% of the Moon is Illuminated
Sep 2
Waxing Crescent
Sep 2
First Quarter
Sep 8
Full
Sep 15
Last Quarter
Sep 24
New

Today's Extremes

State Highs State Lows

Community

WunderPhotos

Upload Photos

1,749,558 photos uploaded!

WunderBlogs® & News

Nearby

Snow Depth

Station Depth Elevation
University Camp 0 in 10300 ft
Niwot 0 in 9910 ft
Wild Basin 0 in 9560 ft
Berthoud Summit 0 in 11300 ft
Jones Pass 0 in 10400 ft

Earthquake Activity

City Distance Mag. Time & Date
No recent earthquake activity has been reported nearby.
Minimum magnitude displayed is 2.5.

Coastal Water Temperatures

Place Temperature
No Stations Reporting

Nearby Weather Stations